createdAt,value
2018-06-25T00:03:50.291Z,6.90
2018-06-25T00:09:03.954Z,6.80
2018-06-25T00:11:41.818Z,6.70
2018-06-25T00:17:15.132Z,6.50
2018-06-25T00:19:50.634Z,6.50
2018-06-25T00:22:23.977Z,6.40
2018-06-25T00:24:55.157Z,6.40
2018-06-25T00:27:23.024Z,6.40
2018-06-25T00:29:50.755Z,6.30
2018-06-25T00:32:23.346Z,6.30
2018-06-25T00:34:54.559Z,6.30
2018-06-25T00:41:39.742Z,6.20
2018-06-25T02:33:43.765Z,5.00
2018-06-25T02:37:36.386Z,4.90
2018-06-25T03:15:43.081Z,5.60
2018-06-25T03:35:51.521Z,7.20
2018-06-25T03:38:19.705Z,7.60
2018-06-25T03:40:48.051Z,8.20
2018-06-25T03:43:15.513Z,9.10
2018-06-25T03:45:43.281Z,10.50
2018-06-25T03:52:33.698Z,12.20
2018-06-25T03:55:01.586Z,13.60
2018-06-25T04:02:01.142Z,14.60
2018-06-25T04:07:50.570Z,18.00
2018-06-25T04:10:35.506Z,18.70
2018-06-25T04:20:16.364Z,21.90
2018-06-25T04:56:47.984Z,25.00
2018-06-25T06:48:25.777Z,20.60
2018-06-25T06:52:13.526Z,20.30
2018-06-25T06:54:41.667Z,20.00
2018-06-25T06:57:16.023Z,19.60
2018-06-25T06:59:44.717Z,19.50
2018-06-25T07:02:28.381Z,19.30
2018-06-25T07:04:56.979Z,19.40
2018-06-25T07:07:27.307Z,19.30
2018-06-25T07:09:54.882Z,19.40
2018-06-25T07:12:22.662Z,19.60
2018-06-25T07:14:50.269Z,19.60
2018-06-25T07:17:17.934Z,19.50
2018-06-25T07:19:46.959Z,19.20
2018-06-25T07:23:10.206Z,19.20
2018-06-25T07:25:40.663Z,19.10
2018-06-25T07:28:08.505Z,19.20
2018-06-25T07:30:40.763Z,19.40
2018-06-25T07:33:11.559Z,19.40
2018-06-25T07:35:39.990Z,19.20
2018-06-25T07:38:07.856Z,19.40
2018-06-25T07:40:36.956Z,19.40
2018-06-25T07:43:06.092Z,19.60
2018-06-25T07:49:50.799Z,19.60
2018-06-25T07:52:19.085Z,19.70
2018-06-25T07:55:55.615Z,19.90
2018-06-25T08:22:53.947Z,20.40
2018-06-25T08:27:11.393Z,20.20
2018-06-25T08:37:48.867Z,20.50
2018-06-25T08:43:29.954Z,20.50
2018-06-25T08:52:37.565Z,20.40
2018-06-25T08:56:30.696Z,20.30
2018-06-25T09:04:33.087Z,21.20
2018-06-25T09:21:36.742Z,21.30
2018-06-25T09:24:05.107Z,21.70
2018-06-25T09:31:51.241Z,21.80
2018-06-25T09:34:30.933Z,22.10
2018-06-25T10:29:45.565Z,23.40
2018-06-25T10:45:08.551Z,22.50
2018-06-25T10:58:36.883Z,23.20
2018-06-25T11:01:04.367Z,23.50
2018-06-25T11:03:31.795Z,23.60
2018-06-25T11:05:59.472Z,23.70
2018-06-25T11:08:26.917Z,24.10
2018-06-25T11:10:54.441Z,24.00
2018-06-25T11:13:21.842Z,23.90
2018-06-25T11:15:49.267Z,23.80
2018-06-25T11:18:16.717Z,23.70
2018-06-25T11:20:44.181Z,23.70
2018-06-25T11:23:11.641Z,23.80
2018-06-25T11:25:39.074Z,23.70
2018-06-25T11:28:06.497Z,23.60
2018-06-25T11:30:33.921Z,23.50
2018-06-25T11:33:01.341Z,23.70
2018-06-25T11:35:28.810Z,23.70
2018-06-25T11:37:56.222Z,23.80
2018-06-25T11:40:23.616Z,24.00
2018-06-25T11:42:51.028Z,23.90
2018-06-25T11:45:18.463Z,24.20
2018-06-25T11:47:45.840Z,24.10
2018-06-25T11:50:13.272Z,24.10
2018-06-25T11:52:40.716Z,24.50
2018-06-25T11:55:08.135Z,24.60
2018-06-25T11:57:35.562Z,24.60
2018-06-25T12:00:03.574Z,24.80
2018-06-25T12:02:30.973Z,25.10
2018-06-25T12:04:58.363Z,24.70
2018-06-25T12:07:25.789Z,24.70
2018-06-25T12:09:53.197Z,24.60
2018-06-25T12:12:20.623Z,24.90
2018-06-25T12:14:48.136Z,24.70
2018-06-25T12:17:15.541Z,24.80
2018-06-25T12:19:42.955Z,24.90
2018-06-25T12:22:10.396Z,24.80
2018-06-25T12:24:37.850Z,24.70
2018-06-25T12:27:05.289Z,24.60
2018-06-25T12:29:32.691Z,24.30
2018-06-25T12:32:00.183Z,24.40
2018-06-25T12:36:55.029Z,24.20
2018-06-25T12:39:22.424Z,24.20
2018-06-25T12:41:49.839Z,24.20
2018-06-25T12:44:17.294Z,24.00
2018-06-25T12:46:44.725Z,23.90
2018-06-25T12:49:12.191Z,23.90
2018-06-25T12:51:39.613Z,23.80
2018-06-25T12:54:07.011Z,23.70
2018-06-25T12:56:34.641Z,23.80
2018-06-25T12:59:02.088Z,23.90
2018-06-25T13:01:29.599Z,23.80
2018-06-25T13:03:57.001Z,24.00
2018-06-25T13:06:24.435Z,24.20
2018-06-25T13:08:51.934Z,24.30
2018-06-25T13:11:19.430Z,24.50
2018-06-25T13:13:46.845Z,24.60
2018-06-25T13:16:14.289Z,24.70
2018-06-25T13:21:09.128Z,25.00
2018-06-25T13:23:36.581Z,25.10
2018-06-25T13:26:04.062Z,25.10
2018-06-25T13:28:31.616Z,25.10
2018-06-25T13:30:59.121Z,25.00
2018-06-25T13:33:26.461Z,25.10
2018-06-25T13:35:53.897Z,25.10
2018-06-25T13:38:21.294Z,24.90
2018-06-25T13:40:48.801Z,24.90
2018-06-25T13:43:16.213Z,24.90
2018-06-25T13:45:43.803Z,24.70
2018-06-25T13:48:11.172Z,24.70
2018-06-25T13:50:38.599Z,24.50
2018-06-25T13:53:06.073Z,24.50
2018-06-25T13:55:33.478Z,24.30
2018-06-25T13:58:00.932Z,24.60
2018-06-25T14:00:28.373Z,25.00
2018-06-25T14:02:55.834Z,25.20
2018-06-25T14:05:23.265Z,25.20
2018-06-25T14:07:50.891Z,25.20
2018-06-25T14:10:18.345Z,25.00
2018-06-25T14:12:45.800Z,24.90
2018-06-25T14:15:14.491Z,24.70
2018-06-25T14:17:42.515Z,24.60
2018-06-25T14:20:11.608Z,24.50
2018-06-25T14:22:40.267Z,24.40
2018-06-25T14:25:08.431Z,24.40
2018-06-25T14:27:41.839Z,24.40
2018-06-25T14:30:16.526Z,24.40
2018-06-25T14:32:56.309Z,24.30
2018-06-25T14:35:25.082Z,24.30
2018-06-25T14:37:53.992Z,24.50
2018-06-25T14:40:23.038Z,24.80
2018-06-25T14:42:52.882Z,24.90
2018-06-25T14:45:21.793Z,25.00
2018-06-25T14:47:51.166Z,25.00
2018-06-25T14:50:19.142Z,25.00
2018-06-25T14:52:48.454Z,24.70
2018-06-25T14:55:16.794Z,24.60
2018-06-25T14:57:44.845Z,24.40
2018-06-25T15:00:19.372Z,24.30
2018-06-25T15:02:47.832Z,24.10
2018-06-25T15:05:15.781Z,24.10
2018-06-25T15:07:44.225Z,23.80
2018-06-25T15:10:14.620Z,23.70
2018-06-25T15:12:43.390Z,23.60
2018-06-25T15:15:11.216Z,23.40
2018-06-25T15:17:39.749Z,23.50
2018-06-25T15:20:08.275Z,23.50
2018-06-25T15:22:38.157Z,23.70
2018-06-25T15:25:06.834Z,23.70
2018-06-25T15:27:34.822Z,23.70
2018-06-25T15:32:32.755Z,23.60
2018-06-25T15:35:03.054Z,23.80
2018-06-25T15:37:30.897Z,23.90
2018-06-25T15:39:59.448Z,24.00
2018-06-25T15:42:29.092Z,23.90
2018-06-25T15:44:56.970Z,23.80
2018-06-25T15:47:26.097Z,23.80
2018-06-25T15:49:54.652Z,23.80
2018-06-25T15:52:23.086Z,23.80
2018-06-25T15:54:51.022Z,23.80
2018-06-25T15:59:47.502Z,24.10
2018-06-25T16:02:16.597Z,24.20
2018-06-25T16:04:45.842Z,24.20
2018-06-25T16:07:14.341Z,24.20
2018-06-25T16:09:42.829Z,24.20
2018-06-25T16:12:11.453Z,24.30
2018-06-25T16:17:08.291Z,24.70
2018-06-25T16:19:37.397Z,24.80
2018-06-25T16:22:06.757Z,24.80
2018-06-25T16:24:35.398Z,24.70
2018-06-25T16:27:03.865Z,24.80
2018-06-25T16:29:31.821Z,24.70
2018-06-25T16:32:00.221Z,24.70
2018-06-25T16:34:28.228Z,24.60
2018-06-25T16:36:56.682Z,24.40
2018-06-25T16:39:25.274Z,24.20
2018-06-25T16:41:54.484Z,24.10
2018-06-25T16:44:22.888Z,23.80
2018-06-25T16:46:51.676Z,23.90
2018-06-25T16:49:20.281Z,23.90
2018-06-25T16:51:49.209Z,24.00
2018-06-25T16:54:17.560Z,24.30
2018-06-25T16:56:46.237Z,24.30
2018-06-25T16:59:14.902Z,24.40
2018-06-25T17:01:43.388Z,24.50
2018-06-25T17:04:11.891Z,24.40
2018-06-25T17:06:41.173Z,24.30
2018-06-25T17:09:11.557Z,24.20
2018-06-25T17:11:40.009Z,24.00
2018-06-25T17:16:36.848Z,23.70
2018-06-25T17:19:06.416Z,23.60
2018-06-25T17:21:35.226Z,23.60
2018-06-25T17:24:03.123Z,23.60
2018-06-25T17:26:30.968Z,23.60
2018-06-25T17:29:00.137Z,23.50
2018-06-25T17:31:28.705Z,23.30
2018-06-25T17:33:58.441Z,23.30
2018-06-25T17:36:26.763Z,23.30
2018-06-25T17:38:55.792Z,23.20
2018-06-25T17:41:25.121Z,23.20
2018-06-25T17:43:54.287Z,23.20
2018-06-25T17:46:22.245Z,23.20
2018-06-25T17:48:51.944Z,23.10
2018-06-25T17:51:21.598Z,23.00
2018-06-25T17:53:49.532Z,23.00
2018-06-25T17:56:17.449Z,22.90
2018-06-25T17:58:45.741Z,22.70
2018-06-25T18:01:15.510Z,22.70
2018-06-25T18:03:43.387Z,22.70
2018-06-25T18:06:11.821Z,22.80
2018-06-25T18:08:41.098Z,22.70
2018-06-25T18:13:37.345Z,22.70
2018-06-25T18:18:34.324Z,22.70
2018-06-25T18:21:03.595Z,22.70
2018-06-25T18:23:32.062Z,22.70
2018-06-25T18:26:00.056Z,22.60
2018-06-25T18:28:28.467Z,22.50
2018-06-25T18:30:57.848Z,22.30
2018-06-25T18:33:26.837Z,22.20
2018-06-25T18:35:54.817Z,22.10
2018-06-25T18:38:23.504Z,22.10
2018-06-25T18:40:51.267Z,22.10
2018-06-25T18:43:20.174Z,22.00
2018-06-25T18:45:48.541Z,21.80
2018-06-25T18:48:16.484Z,21.80
2018-06-25T18:50:45.617Z,21.70
2018-06-25T18:53:14.604Z,21.60
2018-06-25T18:55:43.819Z,21.60
2018-06-25T18:58:12.439Z,21.50
2018-06-25T19:03:09.305Z,21.20
2018-06-25T19:05:39.372Z,20.90
2018-06-25T19:08:08.598Z,20.60
2018-06-25T19:10:37.024Z,20.50
2018-06-25T19:13:05.778Z,20.20
2018-06-25T19:15:33.850Z,20.00
2018-06-25T19:18:02.434Z,20.10
2018-06-25T19:20:31.117Z,20.40
2018-06-25T19:22:59.590Z,20.40
2018-06-25T19:25:27.792Z,20.50
2018-06-25T19:27:55.919Z,20.50
2018-06-25T19:30:23.960Z,20.40
2018-06-25T19:32:53.440Z,20.40
2018-06-25T19:35:21.562Z,20.30
2018-06-25T19:37:51.858Z,20.10
2018-06-25T19:42:47.638Z,19.80
2018-06-25T19:45:16.409Z,19.60
2018-06-25T19:47:44.409Z,19.50
2018-06-25T19:50:12.505Z,19.30
2018-06-25T19:52:41.033Z,19.30
2018-06-25T19:55:09.788Z,19.20
2018-06-25T19:57:39.243Z,19.00
2018-06-25T20:00:08.570Z,19.10
2018-06-25T20:02:36.593Z,19.20
2018-06-25T20:05:04.821Z,19.40
2018-06-25T20:07:33.354Z,19.20
2018-06-25T20:10:02.573Z,19.00
2018-06-25T20:15:00.314Z,18.70
2018-06-25T20:17:28.562Z,18.60
2018-06-25T20:19:57.394Z,18.50
2018-06-25T20:22:25.478Z,18.50
2018-06-25T20:24:54.611Z,18.40
2018-06-25T20:27:23.368Z,18.40
2018-06-25T20:29:52.773Z,18.30
2018-06-25T20:32:21.479Z,18.30
2018-06-25T20:34:49.493Z,18.30
2018-06-25T20:37:17.416Z,18.20
2018-06-25T20:39:47.640Z,18.10
2018-06-25T20:42:16.242Z,18.00
2018-06-25T20:44:44.709Z,17.90
2018-06-25T20:47:13.323Z,17.90
2018-06-25T20:49:42.603Z,17.90
2018-06-25T20:52:11.487Z,17.80
2018-06-25T20:54:40.024Z,17.70
2018-06-25T20:57:08.697Z,17.70
2018-06-25T20:59:36.599Z,17.70
2018-06-25T21:02:04.944Z,17.60
2018-06-25T21:04:34.740Z,17.50
2018-06-25T21:07:02.729Z,17.50
2018-06-25T21:09:31.403Z,17.50
2018-06-25T21:11:59.397Z,17.40
2018-06-25T21:14:27.869Z,17.40
2018-06-25T21:16:56.981Z,17.30
2018-06-25T21:19:24.847Z,17.40
2018-06-25T21:21:53.507Z,17.40
2018-06-25T21:24:21.506Z,17.40
2018-06-25T21:26:50.233Z,17.50
2018-06-25T21:29:18.264Z,17.30
2018-06-25T21:31:47.590Z,17.40
2018-06-25T21:34:17.393Z,17.40
2018-06-25T21:36:46.101Z,17.30
2018-06-25T21:39:14.897Z,17.40
2018-06-25T21:41:43.953Z,17.30
2018-06-25T21:44:12.980Z,17.20
2018-06-25T21:46:41.333Z,17.40
2018-06-25T21:49:09.895Z,17.60
2018-06-25T21:51:37.813Z,17.60
2018-06-25T21:54:06.417Z,17.40
2018-06-25T21:56:35.224Z,17.20
2018-06-25T21:59:03.888Z,17.10
2018-06-25T22:01:33.390Z,17.00
2018-06-25T22:04:02.949Z,17.00
2018-06-25T22:06:30.774Z,16.90
2018-06-25T22:08:59.355Z,16.80
2018-06-25T22:11:28.480Z,16.80
2018-06-25T22:16:25.329Z,16.60
2018-06-25T22:18:53.240Z,16.70
2018-06-25T22:21:22.244Z,16.90
2018-06-25T22:23:52.183Z,17.10
2018-06-25T22:26:22.150Z,17.10
2018-06-25T22:28:50.921Z,17.00
2018-06-25T22:31:18.884Z,16.80
2018-06-25T22:33:47.329Z,16.70
2018-06-25T22:36:16.071Z,16.60
2018-06-25T22:38:44.744Z,16.50
2018-06-25T22:41:14.913Z,16.40
2018-06-25T22:43:42.841Z,16.30
2018-06-25T22:46:10.763Z,16.20
2018-06-25T22:48:39.211Z,16.20
2018-06-25T22:51:07.668Z,16.20
2018-06-25T22:53:36.789Z,16.20
2018-06-25T22:56:04.601Z,16.10
2018-06-25T22:58:33.980Z,16.00
2018-06-25T23:01:02.656Z,15.80
2018-06-25T23:03:32.189Z,15.70
2018-06-25T23:06:01.411Z,15.50
2018-06-25T23:08:30.543Z,15.30
2018-06-25T23:10:59.157Z,15.00
2018-06-25T23:13:29.406Z,14.90
2018-06-25T23:15:57.781Z,14.90
2018-06-25T23:18:27.021Z,14.80
2018-06-25T23:20:56.184Z,14.70
2018-06-25T23:23:24.753Z,14.60
2018-06-25T23:25:53.254Z,14.40
2018-06-25T23:28:22.342Z,14.30
2018-06-25T23:30:50.212Z,14.20
2018-06-25T23:33:18.279Z,14.00
2018-06-25T23:35:48.300Z,13.90
2018-06-25T23:38:17.072Z,13.70
2018-06-25T23:40:46.067Z,13.50
2018-06-25T23:43:13.966Z,13.60
2018-06-25T23:45:42.768Z,13.80
2018-06-25T23:48:10.660Z,14.10
2018-06-25T23:50:39.424Z,14.10
2018-06-25T23:53:07.298Z,13.80
2018-06-25T23:55:35.857Z,13.50
2018-06-25T23:58:04.774Z,13.40
